Time,TemperatureF,DewpointF,PressureIn,WindDirection,WindDirectionDegrees,WindSpeedMPH,WindSpeedGustMPH,Humidity,HourlyPrecipIn,Conditions,Clouds,dailyrainin,SolarRadiationWatts/m^2,SoftwareType,DateUTC
2013-06-29 00:12:00,79.9,76.0,30.00,ENE,73,9.0,14.0,87,0.00,,,0.00,0,weatherlink.com 1.10,2013-06-29 04:12:00,
2013-06-29 00:27:00,79.8,76.0,30.00,East,85,7.0,11.0,87,0.00,,,0.00,0,weatherlink.com 1.10,2013-06-29 04:27:00,
2013-06-29 00:42:00,79.6,75.0,29.99,East,92,6.0,16.0,86,0.00,,,0.00,0,weatherlink.com 1.10,2013-06-29 04:42:00,
2013-06-29 00:57:00,79.6,75.0,29.99,East,80,3.0,11.0,86,0.00,,,0.00,0,weatherlink.com 1.10,2013-06-29 04:57:00,
2013-06-29 01:12:00,79.6,75.0,29.99,ENE,76,5.0,8.0,86,0.00,,,0.00,0,weatherlink.com 1.10,2013-06-29 05:12:00,
2013-06-29 01:28:00,79.4,75.0,29.98,ENE,74,7.0,10.0,86,0.00,,,0.00,0,weatherlink.com 1.10,2013-06-29 05:28:00,
2013-06-29 01:43:00,79.6,75.0,29.97,East,85,6.0,10.0,85,0.00,,,0.00,0,weatherlink.com 1.10,2013-06-29 05:43:00,
2013-06-29 01:58:00,79.6,75.0,29.97,ENE,71,5.0,10.0,86,0.00,,,0.00,0,weatherlink.com 1.10,2013-06-29 05:58:00,
2013-06-29 02:13:00,79.4,75.0,29.97,ENE,76,10.0,12.0,86,0.00,,,0.00,0,weatherlink.com 1.10,2013-06-29 06:13:00,
2013-06-29 02:28:00,79.3,75.0,29.97,ESE,120,3.0,11.0,86,0.00,,,0.00,0,weatherlink.com 1.10,2013-06-29 06:28:00,
2013-06-29 02:43:00,79.2,75.0,29.96,ENE,73,3.0,9.0,86,0.00,,,0.00,0,weatherlink.com 1.10,2013-06-29 06:43:00,
2013-06-29 03:00:00,79.2,75.0,29.96,East,94,9.0,10.0,86,0.00,,,0.00,0,weatherlink.com 1.10,2013-06-29 07:00:00,
2013-06-29 03:13:00,79.3,75.0,29.96,East,82,5.0,13.0,86,0.00,,,0.00,0,weatherlink.com 1.10,2013-06-29 07:13:00,
2013-06-29 03:28:00,79.3,75.0,29.96,East,96,5.0,9.0,86,0.00,,,0.00,0,weatherlink.com 1.10,2013-06-29 07:28:00,
2013-06-29 03:43:00,79.1,75.0,29.96,ESE,108,5.0,7.0,86,0.00,,,0.00,0,weatherlink.com 1.10,2013-06-29 07:43:00,
2013-06-29 03:58:00,78.9,75.0,29.95,East,94,5.0,7.0,87,0.00,,,0.00,0,weatherlink.com 1.10,2013-06-29 07:58:00,
2013-06-29 04:13:00,78.8,75.0,29.95,ESE,121,4.0,7.0,87,0.00,,,0.00,0,weatherlink.com 1.10,2013-06-29 08:13:00,
2013-06-29 04:28:00,78.6,75.0,29.96,SE,131,2.0,5.0,87,0.00,,,0.00,0,weatherlink.com 1.10,2013-06-29 08:28:00,
2013-06-29 04:43:00,78.5,75.0,29.96,ENE,78,1.0,8.0,88,0.00,,,0.00,0,weatherlink.com 1.10,2013-06-29 08:43:00,
2013-06-29 04:58:00,78.4,75.0,29.96,ENE,78,5.0,7.0,88,0.00,,,0.00,0,weatherlink.com 1.10,2013-06-29 08:58:00,
2013-06-29 05:13:00,78.3,75.0,29.97,SE,126,3.0,8.0,88,0.00,,,0.00,0,weatherlink.com 1.10,2013-06-29 09:13:00,
2013-06-29 05:28:00,78.3,75.0,29.97,East,82,2.0,5.0,88,0.00,,,0.00,0,weatherlink.com 1.10,2013-06-29 09:28:00,
2013-06-29 05:43:00,78.3,75.0,29.97,East,86,0.0,5.0,88,0.00,,,0.00,0,weatherlink.com 1.10,2013-06-29 09:43:00,
2013-06-29 05:58:00,78.3,75.0,29.97,East,86,0.0,6.0,88,0.00,,,0.00,9,weatherlink.com 1.10,2013-06-29 09:58:00,
2013-06-29 06:13:00,78.3,75.0,29.98,East,86,1.0,6.0,88,0.00,,,0.00,25,weatherlink.com 1.10,2013-06-29 10:13:00,
2013-06-29 06:28:00,78.5,75.0,29.98,East,84,3.0,7.0,88,0.00,,,0.00,49,weatherlink.com 1.10,2013-06-29 10:28:00,
2013-06-29 06:43:00,79.2,75.0,29.99,East,84,3.0,7.0,87,0.00,,,0.00,104,weatherlink.com 1.10,2013-06-29 10:43:00,
2013-06-29 06:58:00,80.0,76.0,29.99,East,84,6.0,7.0,86,0.00,,,0.00,155,weatherlink.com 1.10,2013-06-29 10:58:00,
2013-06-29 07:13:00,80.7,76.0,29.99,East,84,3.0,7.0,85,0.00,,,0.00,209,weatherlink.com 1.10,2013-06-29 11:13:00,
2013-06-29 07:28:00,81.6,76.0,29.99,ESE,107,3.0,7.0,83,0.00,,,0.00,197,weatherlink.com 1.10,2013-06-29 11:28:00,
2013-06-29 07:43:00,82.2,76.0,29.99,SE,125,4.0,9.0,81,0.00,,,0.00,318,weatherlink.com 1.10,2013-06-29 11:43:00,
2013-06-29 07:58:00,83.0,76.0,29.99,East,86,5.0,13.0,78,0.00,,,0.00,367,weatherlink.com 1.10,2013-06-29 11:58:00,
2013-06-29 08:13:00,83.8,76.0,29.99,ENE,66,2.0,9.0,78,0.00,,,0.00,445,weatherlink.com 1.10,2013-06-29 12:13:00,
2013-06-29 08:28:00,84.0,77.0,29.99,NE,54,6.0,11.0,78,0.00,,,0.00,550,weatherlink.com 1.10,2013-06-29 12:28:00,
2013-06-29 08:43:00,84.0,76.0,29.99,NE,48,8.0,15.0,77,0.00,,,0.00,526,weatherlink.com 1.10,2013-06-29 12:43:00,
2013-06-29 08:59:00,84.6,76.0,29.99,ENE,61,3.0,12.0,75,0.00,,,0.00,585,weatherlink.com 1.10,2013-06-29 12:59:00,
2013-06-29 09:14:00,85.0,76.0,29.99,NE,41,10.0,15.0,75,0.00,,,0.00,626,weatherlink.com 1.10,2013-06-29 13:14:00,
2013-06-29 09:29:00,85.2,77.0,29.99,East,93,3.0,16.0,76,0.00,,,0.00,654,weatherlink.com 1.10,2013-06-29 13:29:00,
2013-06-29 09:44:00,85.7,76.0,29.99,ENE,69,7.0,14.0,73,0.00,,,0.00,687,weatherlink.com 1.10,2013-06-29 13:44:00,
2013-06-29 09:59:00,85.9,76.0,30.00,ENE,78,4.0,15.0,73,0.00,,,0.00,745,weatherlink.com 1.10,2013-06-29 13:59:00,
2013-06-29 10:14:00,86.2,77.0,30.00,East,80,8.0,12.0,73,0.00,,,0.00,780,weatherlink.com 1.10,2013-06-29 14:14:00,
2013-06-29 10:29:00,85.7,77.0,30.00,ENE,67,11.0,16.0,74,0.00,,,0.00,197,weatherlink.com 1.10,2013-06-29 14:29:00,
2013-06-29 10:44:00,85.6,77.0,30.00,East,93,7.0,17.0,75,0.00,,,0.00,837,weatherlink.com 1.10,2013-06-29 14:44:00,
2013-06-29 10:59:00,86.3,77.0,30.01,NE,44,10.0,15.0,74,0.00,,,0.00,812,weatherlink.com 1.10,2013-06-29 14:59:00,
2013-06-29 11:14:00,86.6,77.0,30.00,East,87,11.0,18.0,72,0.00,,,0.00,930,weatherlink.com 1.10,2013-06-29 15:14:00,
2013-06-29 11:29:00,86.9,76.0,30.00,ENE,59,8.0,18.0,71,0.00,,,0.00,969,weatherlink.com 1.10,2013-06-29 15:29:00,
2013-06-29 11:44:00,86.7,77.0,30.00,NE,44,11.0,18.0,73,0.00,,,0.00,812,weatherlink.com 1.10,2013-06-29 15:44:00,
2013-06-29 11:59:00,86.3,77.0,30.00,East,88,10.0,19.0,73,0.00,,,0.00,749,weatherlink.com 1.10,2013-06-29 15:59:00,
2013-06-29 12:14:00,86.7,77.0,30.00,East,86,15.0,17.0,72,0.00,,,0.00,752,weatherlink.com 1.10,2013-06-29 16:14:00,
2013-06-29 12:29:00,87.0,77.0,30.00,ENE,57,7.0,14.0,72,0.00,,,0.00,877,weatherlink.com 1.10,2013-06-29 16:29:00,
2013-06-29 12:44:00,87.1,77.0,29.99,ENE,69,11.0,21.0,72,0.00,,,0.00,928,weatherlink.com 1.10,2013-06-29 16:44:00,
2013-06-29 12:59:00,86.5,77.0,29.99,ENE,61,9.0,18.0,72,0.00,,,0.00,921,weatherlink.com 1.10,2013-06-29 16:59:00,
2013-06-29 13:14:00,87.2,77.0,29.98,ENE,70,8.0,14.0,72,0.00,,,0.00,928,weatherlink.com 1.10,2013-06-29 17:14:00,
2013-06-29 13:29:00,87.0,77.0,29.98,ENE,64,5.0,15.0,71,0.00,,,0.00,902,weatherlink.com 1.10,2013-06-29 17:29:00,
2013-06-29 13:44:00,87.1,77.0,29.98,North,5,4.0,15.0,71,0.00,,,0.00,884,weatherlink.com 1.10,2013-06-29 17:44:00,
2013-06-29 13:59:00,87.5,77.0,29.97,East,98,9.0,16.0,71,0.00,,,0.00,860,weatherlink.com 1.10,2013-06-29 17:59:00,
2013-06-29 14:14:00,86.8,77.0,29.98,ENE,74,9.0,19.0,72,0.00,,,0.00,833,weatherlink.com 1.10,2013-06-29 18:14:00,
2013-06-29 14:29:00,86.7,77.0,29.97,ENE,67,11.0,19.0,72,0.00,,,0.00,805,weatherlink.com 1.10,2013-06-29 18:29:00,
2013-06-29 14:44:00,86.6,77.0,29.97,NE,45,12.0,16.0,73,0.00,,,0.00,775,weatherlink.com 1.10,2013-06-29 18:44:00,
2013-06-29 14:59:00,86.3,77.0,29.96,ENE,68,9.0,18.0,73,0.00,,,0.00,742,weatherlink.com 1.10,2013-06-29 18:59:00,
2013-06-29 15:14:00,86.4,77.0,29.95,ENE,69,13.0,18.0,73,0.00,,,0.00,705,weatherlink.com 1.10,2013-06-29 19:14:00,
2013-06-29 15:29:00,86.1,77.0,29.95,NE,48,12.0,19.0,73,0.00,,,0.00,670,weatherlink.com 1.10,2013-06-29 19:29:00,
2013-06-29 15:44:00,85.7,77.0,29.95,East,83,6.0,23.0,74,0.00,,,0.00,615,weatherlink.com 1.10,2013-06-29 19:44:00,
2013-06-29 15:59:00,85.6,76.0,29.95,NE,43,13.0,19.0,74,0.00,,,0.00,575,weatherlink.com 1.10,2013-06-29 19:59:00,
2013-06-29 16:14:00,85.5,77.0,29.95,ENE,64,9.0,22.0,75,0.00,,,0.00,529,weatherlink.com 1.10,2013-06-29 20:14:00,
2013-06-29 16:29:00,85.2,77.0,29.94,NE,46,13.0,23.0,75,0.00,,,0.00,483,weatherlink.com 1.10,2013-06-29 20:29:00,
2013-06-29 16:44:00,85.2,76.0,29.94,ENE,76,10.0,20.0,74,0.00,,,0.00,462,weatherlink.com 1.10,2013-06-29 20:44:00,
2013-06-29 16:59:00,84.9,77.0,29.95,NE,45,5.0,17.0,76,0.00,,,0.00,163,weatherlink.com 1.10,2013-06-29 20:59:00,
2013-06-29 17:14:00,84.5,76.0,29.94,East,90,10.0,17.0,76,0.00,,,0.00,262,weatherlink.com 1.10,2013-06-29 21:14:00,
2013-06-29 17:29:00,83.9,76.0,29.93,East,90,11.0,19.0,77,0.00,,,0.00,260,weatherlink.com 1.10,2013-06-29 21:29:00,
2013-06-29 17:44:00,83.7,76.0,29.94,ENE,63,10.0,22.0,78,0.00,,,0.00,236,weatherlink.com 1.10,2013-06-29 21:44:00,
2013-06-29 17:59:00,83.3,76.0,29.94,NE,36,6.0,22.0,79,0.00,,,0.00,149,weatherlink.com 1.10,2013-06-29 21:59:00,
2013-06-29 18:14:00,82.9,76.0,29.94,ENE,65,11.0,17.0,79,0.00,,,0.00,97,weatherlink.com 1.10,2013-06-29 22:14:00,
2013-06-29 18:29:00,82.6,76.0,29.95,ENE,70,9.0,18.0,80,0.00,,,0.00,53,weatherlink.com 1.10,2013-06-29 22:29:00,
2013-06-29 18:44:00,82.1,76.0,29.95,East,88,8.0,17.0,82,0.00,,,0.00,23,weatherlink.com 1.10,2013-06-29 22:44:00,
2013-06-29 18:59:00,81.6,76.0,29.95,East,88,14.0,19.0,82,0.00,,,0.00,7,weatherlink.com 1.10,2013-06-29 22:59:00,
2013-06-29 19:14:00,81.5,76.0,29.95,NE,49,8.0,15.0,82,0.00,,,0.00,0,weatherlink.com 1.10,2013-06-29 23:14:00,
2013-06-29 19:29:00,81.4,76.0,29.96,East,99,13.0,17.0,83,0.00,,,0.00,0,weatherlink.com 1.10,2013-06-29 23:29:00,
2013-06-29 19:44:00,81.4,76.0,29.96,ENE,66,5.0,18.0,83,0.00,,,0.00,0,weatherlink.com 1.10,2013-06-29 23:44:00,
2013-06-29 19:59:00,81.2,76.0,29.97,East,80,8.0,17.0,83,0.00,,,0.00,0,weatherlink.com 1.10,2013-06-29 23:59:00,
2013-06-29 20:14:00,81.2,75.0,29.97,East,82,14.0,23.0,82,0.00,,,0.00,0,weatherlink.com 1.10,2013-06-30 00:14:00,
2013-06-29 20:29:00,81.2,75.0,29.98,ENE,63,5.0,18.0,82,0.00,,,0.00,0,weatherlink.com 1.10,2013-06-30 00:29:00,
2013-06-29 20:44:00,81.2,75.0,29.98,East,79,8.0,18.0,82,0.00,,,0.00,0,weatherlink.com 1.10,2013-06-30 00:44:00,
2013-06-29 20:59:00,81.2,76.0,29.98,East,84,11.0,16.0,83,0.00,,,0.00,0,weatherlink.com 1.10,2013-06-30 00:59:00,
2013-06-29 21:14:00,81.1,76.0,29.98,NE,56,4.0,18.0,83,0.00,,,0.00,0,weatherlink.com 1.10,2013-06-30 01:14:00,
2013-06-29 21:29:00,81.1,75.0,29.99,NE,43,8.0,18.0,82,0.00,,,0.00,0,weatherlink.com 1.10,2013-06-30 01:29:00,
2013-06-29 21:44:00,81.1,75.0,29.99,NE,44,14.0,18.0,82,0.00,,,0.00,0,weatherlink.com 1.10,2013-06-30 01:44:00,
2013-06-29 21:59:00,81.1,75.0,29.99,ENE,75,8.0,16.0,82,0.00,,,0.00,0,weatherlink.com 1.10,2013-06-30 01:59:00,
2013-06-29 22:14:00,80.9,75.0,29.99,ENE,58,9.0,16.0,82,0.00,,,0.00,0,weatherlink.com 1.10,2013-06-30 02:14:00,
2013-06-29 22:29:00,81.0,75.0,30.00,ENE,67,4.0,18.0,83,0.00,,,0.00,0,weatherlink.com 1.10,2013-06-30 02:29:00,
2013-06-29 22:44:00,81.0,75.0,30.00,ENE,72,4.0,21.0,83,0.00,,,0.00,0,weatherlink.com 1.10,2013-06-30 02:44:00,
2013-06-29 22:59:00,81.0,76.0,30.00,NE,52,7.0,15.0,84,0.00,,,0.00,0,weatherlink.com 1.10,2013-06-30 02:59:00,
2013-06-29 23:14:00,81.0,76.0,30.00,ENE,65,3.0,14.0,84,0.00,,,0.00,0,weatherlink.com 1.10,2013-06-30 03:14:00,
2013-06-29 23:29:00,81.1,76.0,30.00,ENE,71,5.0,15.0,84,0.00,,,0.00,0,weatherlink.com 1.10,2013-06-30 03:29:00,
2013-06-29 23:44:00,81.0,76.0,29.99,East,89,11.0,14.0,85,0.00,,,0.00,0,weatherlink.com 1.10,2013-06-30 03:44:00,